createdAt,value
2019-02-14T00:00:28.758Z,25.10
2019-02-14T00:03:01.877Z,25.33
2019-02-14T00:05:33.531Z,26.03
2019-02-14T00:08:05.091Z,27.53
2019-02-14T00:10:36.926Z,26.80
2019-02-14T00:13:08.435Z,22.60
2019-02-14T00:15:39.999Z,27.00
2019-02-14T00:18:11.520Z,27.37
2019-02-14T00:20:43.024Z,28.67
2019-02-14T00:23:32.654Z,25.70
2019-02-14T00:26:04.292Z,25.03
2019-02-14T00:28:43.589Z,26.33
2019-02-14T00:31:15.178Z,26.70
2019-02-14T00:33:46.753Z,26.87
2019-02-14T00:36:18.244Z,27.10
2019-02-14T00:38:49.710Z,26.97
2019-02-14T00:41:22.225Z,27.30
2019-02-14T00:43:53.844Z,25.97
2019-02-14T00:46:25.307Z,27.30
2019-02-14T00:48:57.045Z,25.63
2019-02-14T00:51:31.224Z,27.77
2019-02-14T00:54:02.767Z,27.23
2019-02-14T00:56:34.307Z,27.90
2019-02-14T00:59:05.780Z,30.07
2019-02-14T01:01:37.218Z,28.03
2019-02-14T01:04:09.023Z,28.20
2019-02-14T01:06:40.520Z,30.03
2019-02-14T01:09:12.107Z,29.07
2019-02-14T01:11:43.572Z,28.23
2019-02-14T01:14:15.100Z,28.73
2019-02-14T01:16:46.808Z,30.40
2019-02-14T01:19:37.527Z,30.70
2019-02-14T01:22:08.980Z,29.07
2019-02-14T01:24:41.060Z,29.23
2019-02-14T01:27:12.524Z,28.80
2019-02-14T01:29:44.800Z,28.77
2019-02-14T01:32:16.328Z,29.70
2019-02-14T01:34:47.828Z,28.60
2019-02-14T01:37:21.058Z,29.43
2019-02-14T01:40:11.558Z,33.27
2019-02-14T01:42:43.007Z,31.33
2019-02-14T01:45:14.502Z,35.40
2019-02-14T01:47:45.989Z,32.77
2019-02-14T01:50:17.501Z,31.67
2019-02-14T01:52:48.954Z,35.23
2019-02-14T01:55:20.509Z,33.53
2019-02-14T01:57:52.039Z,35.37
2019-02-14T02:00:23.729Z,33.80
2019-02-14T02:02:55.171Z,34.80
2019-02-14T02:05:26.648Z,32.90
2019-02-14T02:08:00.926Z,32.57
2019-02-14T02:10:32.480Z,30.57
2019-02-14T02:13:03.976Z,36.17
2019-02-14T02:15:36.552Z,36.70
2019-02-14T02:18:08.031Z,33.90
2019-02-14T02:20:39.578Z,34.97
2019-02-14T02:23:11.194Z,36.00
2019-02-14T02:25:42.660Z,36.77
2019-02-14T02:28:14.141Z,35.93
2019-02-14T02:30:45.652Z,33.67
2019-02-14T02:33:17.172Z,35.77
2019-02-14T02:35:48.719Z,32.10
2019-02-14T02:38:20.327Z,35.90
2019-02-14T02:40:51.874Z,36.27
2019-02-14T02:43:23.378Z,37.47
2019-02-14T02:45:54.878Z,34.83
2019-02-14T02:48:26.687Z,36.07
2019-02-14T02:50:58.188Z,34.97
2019-02-14T02:53:29.670Z,33.87
2019-02-14T02:56:01.178Z,33.40
2019-02-14T02:58:32.778Z,35.43
2019-02-14T03:01:04.303Z,37.83
2019-02-14T03:03:35.784Z,36.63
2019-02-14T03:06:10.693Z,32.83
2019-02-14T03:08:40.533Z,35.20
2019-02-14T03:11:11.977Z,36.60
2019-02-14T03:13:43.410Z,36.13
2019-02-14T03:16:14.878Z,37.13
2019-02-14T03:18:46.352Z,34.37
2019-02-14T03:21:17.828Z,36.07
2019-02-14T03:23:49.251Z,35.40
2019-02-14T03:26:21.103Z,36.97
2019-02-14T03:28:52.530Z,35.80
2019-02-14T03:31:24.010Z,35.50
2019-02-14T03:33:55.439Z,38.60
2019-02-14T03:36:26.936Z,35.63
2019-02-14T03:38:58.364Z,46.23
2019-02-14T03:41:29.832Z,37.90
2019-02-14T03:44:01.463Z,35.80
2019-02-14T03:46:34.676Z,37.57
2019-02-14T03:49:06.086Z,37.00
2019-02-14T03:51:37.586Z,36.60
2019-02-14T03:54:10.129Z,35.37
2019-02-14T03:56:41.710Z,38.77
2019-02-14T03:59:13.219Z,36.60
2019-02-14T04:01:46.381Z,36.17
2019-02-14T04:04:17.861Z,36.17
2019-02-14T04:06:49.365Z,36.57
2019-02-14T04:09:20.907Z,37.07
2019-02-14T04:11:52.352Z,38.83
2019-02-14T04:14:25.837Z,38.50
2019-02-14T04:16:57.309Z,35.73
2019-02-14T04:19:29.179Z,37.80
2019-02-14T04:22:00.651Z,37.37
2019-02-14T04:24:32.094Z,36.60
2019-02-14T04:27:03.553Z,37.70
2019-02-14T04:29:35.009Z,38.97
2019-02-14T04:32:06.486Z,38.83
2019-02-14T04:34:37.910Z,37.63
2019-02-14T04:37:09.368Z,38.30
2019-02-14T04:39:40.830Z,39.80
2019-02-14T04:42:12.341Z,40.43
2019-02-14T04:44:43.826Z,38.47
2019-02-14T04:47:15.709Z,39.03
2019-02-14T04:49:47.217Z,39.03
2019-02-14T04:52:18.693Z,40.73
2019-02-14T04:54:50.176Z,39.03
2019-02-14T04:57:21.756Z,39.67
2019-02-14T05:00:06.019Z,38.87
2019-02-14T05:02:37.500Z,39.07
2019-02-14T05:05:09.725Z,40.20
2019-02-14T05:07:41.206Z,36.67
2019-02-14T05:10:13.087Z,38.03
2019-02-14T05:12:44.649Z,39.23
2019-02-14T05:15:16.114Z,41.97
2019-02-14T05:17:47.769Z,37.70
2019-02-14T05:20:19.229Z,38.37
2019-02-14T05:23:10.155Z,38.47
2019-02-14T05:25:41.598Z,38.30
2019-02-14T05:28:13.087Z,39.47
2019-02-14T05:30:44.553Z,39.87
2019-02-14T05:33:15.993Z,37.80
2019-02-14T05:35:47.439Z,40.83
2019-02-14T05:38:18.999Z,38.53
2019-02-14T05:40:50.491Z,40.77
2019-02-14T05:43:22.081Z,41.07
2019-02-14T05:45:53.604Z,39.80
2019-02-14T05:48:37.010Z,40.30
2019-02-14T05:51:08.496Z,38.93
2019-02-14T05:53:39.952Z,40.13
2019-02-14T05:56:11.402Z,41.00
2019-02-14T05:58:42.871Z,39.10
2019-02-14T06:01:17.637Z,40.00
2019-02-14T06:03:50.108Z,41.83
2019-02-14T06:06:21.574Z,41.07
2019-02-14T06:08:53.065Z,42.67
2019-02-14T06:11:24.545Z,41.83
2019-02-14T06:13:55.996Z,39.37
2019-02-14T06:16:27.737Z,40.47
2019-02-14T06:18:59.295Z,40.23
2019-02-14T06:21:30.770Z,42.50
2019-02-14T06:24:02.392Z,40.47
2019-02-14T06:26:33.860Z,38.30
2019-02-14T06:29:05.458Z,42.63
2019-02-14T06:31:37.518Z,41.00
2019-02-14T06:34:11.102Z,42.10
2019-02-14T06:36:42.576Z,41.37
2019-02-14T06:39:14.080Z,40.40
2019-02-14T06:41:45.715Z,39.33
2019-02-14T06:44:17.160Z,40.43
2019-02-14T06:46:48.665Z,35.00
2019-02-14T06:49:39.224Z,39.00
2019-02-14T06:52:11.072Z,41.57
2019-02-14T06:54:42.620Z,39.80
2019-02-14T06:57:14.146Z,38.67
2019-02-14T06:59:45.634Z,42.80
2019-02-14T07:02:17.084Z,36.93
2019-02-14T07:04:48.620Z,41.20
2019-02-14T07:07:20.198Z,42.37
2019-02-14T07:09:51.684Z,42.50
2019-02-14T07:12:23.284Z,41.03
2019-02-14T07:14:54.758Z,42.60
2019-02-14T07:17:26.208Z,42.10
2019-02-14T07:19:57.698Z,41.23
2019-02-14T07:22:29.178Z,40.20
2019-02-14T07:25:03.732Z,41.43
2019-02-14T07:27:35.302Z,39.50
2019-02-14T07:30:13.416Z,42.50
2019-02-14T07:32:44.944Z,40.70
2019-02-14T07:35:16.523Z,40.03
2019-02-14T07:37:48.049Z,38.77
2019-02-14T07:40:19.594Z,37.20
2019-02-14T07:42:51.300Z,42.30
2019-02-14T07:45:26.612Z,41.13
2019-02-14T07:48:14.756Z,41.37
2019-02-14T07:50:51.267Z,43.20
2019-02-14T07:53:26.956Z,41.83
2019-02-14T07:56:19.207Z,40.57
2019-02-14T07:58:51.945Z,39.27
2019-02-14T08:01:52.001Z,40.40
2019-02-14T08:04:30.994Z,38.53
2019-02-14T08:07:09.956Z,37.90
2019-02-14T08:09:48.726Z,40.23
2019-02-14T08:12:22.212Z,38.97
2019-02-14T08:14:54.020Z,37.67
2019-02-14T08:17:26.034Z,40.23
2019-02-14T08:20:00.317Z,40.57
2019-02-14T08:22:55.731Z,41.10
2019-02-14T08:25:50.748Z,40.37
2019-02-14T08:28:23.987Z,43.13
2019-02-14T08:31:28.364Z,39.77
2019-02-14T08:34:00.196Z,38.30
2019-02-14T08:36:36.388Z,41.13
2019-02-14T08:39:10.290Z,38.63
2019-02-14T08:41:41.900Z,40.07
2019-02-14T08:44:26.342Z,40.10
2019-02-14T08:49:59.995Z,40.60
2019-02-14T08:52:55.132Z,42.27
2019-02-14T08:55:37.221Z,38.73
2019-02-14T08:58:17.658Z,38.07
2019-02-14T09:01:06.255Z,40.10
2019-02-14T09:03:37.826Z,39.40
2019-02-14T09:06:09.553Z,38.23
2019-02-14T09:08:41.135Z,37.43
2019-02-14T09:11:14.317Z,37.37
2019-02-14T09:13:46.918Z,36.87
2019-02-14T09:16:18.485Z,37.70
2019-02-14T09:18:50.177Z,38.60
2019-02-14T09:21:23.202Z,38.90
2019-02-14T09:23:59.874Z,37.90
2019-02-14T09:26:32.508Z,35.47
2019-02-14T09:29:04.553Z,39.63
2019-02-14T09:31:36.292Z,37.50
2019-02-14T09:34:08.397Z,36.63
2019-02-14T09:36:43.377Z,37.83
2019-02-14T09:39:18.407Z,37.43
2019-02-14T09:41:50.017Z,36.50
2019-02-14T09:44:22.845Z,37.03
2019-02-14T09:46:54.968Z,37.23
2019-02-14T09:49:26.704Z,35.70
2019-02-14T09:51:58.390Z,35.10
2019-02-14T09:54:31.770Z,33.07
2019-02-14T09:57:04.997Z,35.97
2019-02-14T09:59:36.674Z,39.43
2019-02-14T10:02:09.838Z,38.00
2019-02-14T10:04:41.412Z,40.10
2019-02-14T10:07:12.889Z,41.03
2019-02-14T10:09:44.506Z,38.10
2019-02-14T10:12:15.984Z,38.70
2019-02-14T10:14:47.525Z,37.03
2019-02-14T10:17:22.229Z,35.57
2019-02-14T10:19:52.423Z,38.50
2019-02-14T10:22:24.879Z,38.40
2019-02-14T10:24:58.001Z,37.07
2019-02-14T10:27:31.049Z,37.50
2019-02-14T10:30:17.171Z,35.20
2019-02-14T10:32:48.697Z,39.43
2019-02-14T10:35:21.255Z,34.83
2019-02-14T10:37:52.666Z,35.60
2019-02-14T10:40:24.632Z,36.07
2019-02-14T10:42:57.507Z,36.13
2019-02-14T10:45:29.059Z,37.17
2019-02-14T10:48:01.890Z,38.53
2019-02-14T10:50:33.477Z,38.30
2019-02-14T10:53:05.097Z,38.30
2019-02-14T10:55:38.213Z,37.37
2019-02-14T10:58:12.993Z,38.50
2019-02-14T11:00:46.010Z,35.17
2019-02-14T11:03:17.873Z,36.10
2019-02-14T11:05:49.557Z,36.97
2019-02-14T11:08:21.660Z,34.43
2019-02-14T11:11:05.349Z,35.47
2019-02-14T11:13:37.395Z,34.67
2019-02-14T11:16:09.883Z,34.10
2019-02-14T11:18:44.394Z,34.83
2019-02-14T11:21:14.610Z,31.47
2019-02-14T11:23:46.205Z,32.67
2019-02-14T11:26:17.817Z,32.20
2019-02-14T11:28:49.519Z,32.53
2019-02-14T11:31:21.125Z,31.00
2019-02-14T11:33:52.758Z,31.90
2019-02-14T11:36:24.574Z,30.20
2019-02-14T11:38:56.369Z,27.87
2019-02-14T11:41:30.671Z,32.90
2019-02-14T11:44:02.955Z,30.10
2019-02-14T11:46:34.587Z,30.23
2019-02-14T11:49:06.128Z,29.20
2019-02-14T11:51:57.450Z,30.50
2019-02-14T11:54:29.051Z,29.37
2019-02-14T11:57:00.652Z,30.43
2019-02-14T11:59:32.215Z,29.30
2019-02-14T12:02:03.855Z,26.10
2019-02-14T12:04:35.516Z,25.73
2019-02-14T12:07:07.033Z,26.03
2019-02-14T12:09:38.480Z,26.63
2019-02-14T12:12:10.057Z,25.77
2019-02-14T12:14:41.650Z,24.87
2019-02-14T12:17:13.237Z,23.13
2019-02-14T12:19:44.824Z,24.10
2019-02-14T12:22:16.305Z,23.33
2019-02-14T12:24:47.898Z,21.33
2019-02-14T12:27:19.501Z,20.87
2019-02-14T12:29:54.025Z,19.20
2019-02-14T12:32:26.732Z,20.20
2019-02-14T12:34:58.360Z,21.87
2019-02-14T12:37:29.876Z,21.37
2019-02-14T12:40:05.038Z,21.77
2019-02-14T12:42:36.702Z,22.10
2019-02-14T12:45:20.059Z,19.70
2019-02-14T12:47:44.020Z,19.57
2019-02-14T12:50:15.548Z,18.83
2019-02-14T12:52:47.061Z,20.03
2019-02-14T12:55:18.565Z,16.13
2019-02-14T12:57:50.043Z,18.47
2019-02-14T13:00:22.381Z,18.00
2019-02-14T13:02:53.887Z,15.73
2019-02-14T13:05:25.354Z,17.13
2019-02-14T13:07:58.058Z,16.73
2019-02-14T13:10:47.002Z,18.20
2019-02-14T13:13:18.585Z,16.40
2019-02-14T13:15:50.087Z,14.47
2019-02-14T13:18:21.622Z,14.60
2019-02-14T13:20:55.982Z,15.20
2019-02-14T13:23:27.534Z,14.50
2019-02-14T13:25:59.121Z,15.77
2019-02-14T13:28:33.138Z,14.80
2019-02-14T13:31:04.808Z,13.63
2019-02-14T13:33:36.326Z,13.03
2019-02-14T13:36:12.593Z,15.67
2019-02-14T13:38:44.154Z,13.37
2019-02-14T13:41:15.950Z,13.27
2019-02-14T13:43:48.980Z,12.40
2019-02-14T13:46:21.596Z,10.57
2019-02-14T13:48:53.172Z,11.10
2019-02-14T13:51:27.229Z,10.53
2019-02-14T13:53:59.119Z,11.20
2019-02-14T13:56:30.648Z,10.80
2019-02-14T13:59:02.224Z,10.83
2019-02-14T14:01:34.856Z,11.53
2019-02-14T14:04:10.078Z,10.73
2019-02-14T14:06:41.605Z,11.50
2019-02-14T14:09:13.835Z,11.20
2019-02-14T14:11:45.663Z,10.40
2019-02-14T14:14:17.311Z,10.67
2019-02-14T14:16:51.796Z,11.17
2019-02-14T14:19:23.479Z,10.10
2019-02-14T14:21:55.341Z,11.40
2019-02-14T14:24:27.117Z,11.40
2019-02-14T14:26:58.644Z,11.07
2019-02-14T14:29:30.267Z,10.53
2019-02-14T14:32:01.832Z,10.00
2019-02-14T14:34:33.477Z,12.17
2019-02-14T14:37:06.610Z,8.47
2019-02-14T14:39:38.181Z,11.70
2019-02-14T14:42:35.932Z,11.00
2019-02-14T14:45:09.890Z,11.57
2019-02-14T14:47:41.343Z,12.33
2019-02-14T14:50:14.927Z,11.60
2019-02-14T14:52:46.473Z,11.73
2019-02-14T14:55:20.617Z,13.20
2019-02-14T14:57:52.345Z,12.23
2019-02-14T15:00:26.981Z,12.20
2019-02-14T15:03:00.219Z,14.10
2019-02-14T15:05:32.148Z,12.93
2019-02-14T15:08:04.244Z,13.40
2019-02-14T15:10:36.062Z,12.23
2019-02-14T15:13:14.703Z,11.60
2019-02-14T15:15:51.027Z,11.73
2019-02-14T15:18:29.666Z,11.80
2019-02-14T15:21:06.325Z,12.50
2019-02-14T15:23:37.955Z,12.60
2019-02-14T15:26:09.497Z,11.67
2019-02-14T15:28:49.954Z,11.83
2019-02-14T15:31:40.920Z,11.77
2019-02-14T15:34:12.463Z,11.70
2019-02-14T15:37:03.747Z,11.70
2019-02-14T15:39:35.461Z,12.10
2019-02-14T15:42:07.178Z,11.67
2019-02-14T15:44:39.012Z,10.73
2019-02-14T15:47:14.247Z,12.70
2019-02-14T15:49:51.379Z,13.10
2019-02-14T15:52:27.456Z,12.60
2019-02-14T15:55:02.439Z,11.80
2019-02-14T15:57:34.179Z,14.50
2019-02-14T16:00:09.651Z,12.80
2019-02-14T16:02:39.351Z,13.37
2019-02-14T16:05:10.988Z,13.10
2019-02-14T16:07:42.672Z,11.63
2019-02-14T16:10:18.473Z,11.10
2019-02-14T16:12:51.274Z,14.53
2019-02-14T16:15:30.851Z,13.13
2019-02-14T16:18:12.967Z,13.90
2019-02-14T16:20:46.569Z,13.47
2019-02-14T16:23:22.133Z,13.33
2019-02-14T16:25:54.064Z,14.63
2019-02-14T16:28:26.053Z,13.70
2019-02-14T16:30:57.540Z,13.97
2019-02-14T16:33:29.023Z,14.23
2019-02-14T16:36:08.112Z,13.83
2019-02-14T16:38:42.095Z,14.67
2019-02-14T16:41:13.760Z,13.10
2019-02-14T16:43:45.775Z,14.73
2019-02-14T16:46:21.833Z,15.00
2019-02-14T16:48:53.533Z,14.37
2019-02-14T16:51:25.142Z,17.23
2019-02-14T16:53:56.677Z,16.20
2019-02-14T16:56:28.244Z,16.20
2019-02-14T16:58:59.770Z,15.33
2019-02-14T17:01:47.902Z,15.20
2019-02-14T17:04:23.215Z,16.93
2019-02-14T17:06:54.983Z,14.70
2019-02-14T17:09:26.501Z,16.43
2019-02-14T17:11:58.036Z,15.80
2019-02-14T17:14:29.544Z,14.27
2019-02-14T17:17:03.166Z,14.40
2019-02-14T17:19:36.244Z,14.17
2019-02-14T17:22:07.860Z,14.20
2019-02-14T17:24:39.345Z,14.03
2019-02-14T17:27:10.857Z,15.60
2019-02-14T17:29:42.539Z,14.20
2019-02-14T17:32:17.771Z,16.30
2019-02-14T17:34:51.022Z,15.03
2019-02-14T17:37:23.698Z,15.77
2019-02-14T17:39:55.370Z,14.63
2019-02-14T17:42:27.024Z,15.10
2019-02-14T17:44:58.600Z,16.87
2019-02-14T17:47:30.205Z,15.10
2019-02-14T17:50:01.923Z,14.80
2019-02-14T17:52:33.461Z,15.83
2019-02-14T17:55:05.096Z,16.40
2019-02-14T17:57:57.878Z,16.07
2019-02-14T18:00:30.520Z,14.20
2019-02-14T18:03:02.131Z,15.37
2019-02-14T18:05:35.444Z,15.47
2019-02-14T18:08:10.882Z,14.90
2019-02-14T18:10:44.327Z,14.73
2019-02-14T18:13:16.382Z,16.30
2019-02-14T18:15:51.306Z,13.90
2019-02-14T18:18:22.910Z,15.17
2019-02-14T18:20:54.680Z,14.90
2019-02-14T18:23:26.475Z,17.00
2019-02-14T18:25:58.306Z,15.37
2019-02-14T18:28:30.096Z,15.80
2019-02-14T18:31:04.673Z,16.77
2019-02-14T18:33:36.228Z,18.37
2019-02-14T18:36:07.777Z,17.07
2019-02-14T18:38:39.354Z,17.30
2019-02-14T18:41:15.408Z,17.50
2019-02-14T18:43:47.093Z,17.87
2019-02-14T18:46:19.876Z,16.77
2019-02-14T18:48:51.390Z,19.07
2019-02-14T18:51:27.078Z,16.50
2019-02-14T18:53:58.787Z,17.40
2019-02-14T18:56:30.670Z,17.47
2019-02-14T18:59:03.445Z,17.20
2019-02-14T19:01:35.442Z,15.73
2019-02-14T19:04:07.128Z,15.60
2019-02-14T19:06:38.786Z,16.73
2019-02-14T19:09:12.286Z,18.20
2019-02-14T19:11:52.139Z,16.37
2019-02-14T19:14:26.306Z,16.10
2019-02-14T19:16:57.936Z,20.57
2019-02-14T19:19:31.566Z,23.50
2019-02-14T19:22:03.625Z,19.93
2019-02-14T19:24:37.272Z,19.20
2019-02-14T19:27:09.046Z,16.87
2019-02-14T19:29:41.812Z,16.03
2019-02-14T19:32:13.611Z,19.57
2019-02-14T19:34:45.417Z,19.83
2019-02-14T19:37:17.067Z,17.63
2019-02-14T19:39:48.656Z,16.77
2019-02-14T19:42:20.365Z,16.93
2019-02-14T19:44:52.668Z,15.47
2019-02-14T19:47:24.319Z,16.97
2019-02-14T19:49:55.981Z,15.97
2019-02-14T19:52:33.262Z,15.90
2019-02-14T19:55:04.845Z,18.07
2019-02-14T19:57:36.488Z,17.70
2019-02-14T20:00:15.175Z,17.77
2019-02-14T20:02:46.910Z,19.53
2019-02-14T20:05:18.543Z,17.63
2019-02-14T20:07:50.412Z,17.23
2019-02-14T20:10:22.093Z,18.30
2019-02-14T20:12:54.061Z,18.70
2019-02-14T20:15:25.533Z,18.73
2019-02-14T20:18:02.179Z,15.90
2019-02-14T20:20:33.708Z,18.43
2019-02-14T20:23:05.717Z,17.53
2019-02-14T20:25:37.294Z,17.90
2019-02-14T20:28:11.893Z,18.13
2019-02-14T20:30:44.506Z,17.83
2019-02-14T20:33:16.255Z,17.73
2019-02-14T20:35:50.582Z,17.53
2019-02-14T20:38:22.334Z,18.83
2019-02-14T20:40:54.054Z,19.30
2019-02-14T20:43:25.882Z,17.60
2019-02-14T20:45:57.593Z,18.37
2019-02-14T20:48:29.303Z,19.83
2019-02-14T20:51:00.830Z,19.80
2019-02-14T20:53:32.601Z,17.90
2019-02-14T20:56:04.206Z,18.13
2019-02-14T20:58:36.975Z,16.33
2019-02-14T21:01:09.785Z,16.30
2019-02-14T21:03:43.515Z,19.20
2019-02-14T21:06:19.047Z,17.90
2019-02-14T21:08:53.587Z,17.03
2019-02-14T21:11:25.625Z,16.80
2019-02-14T21:13:58.679Z,16.33
2019-02-14T21:16:30.288Z,16.10
2019-02-14T21:19:01.902Z,15.50
2019-02-14T21:21:36.721Z,16.70
2019-02-14T21:24:10.493Z,16.90
2019-02-14T21:26:42.039Z,16.13
2019-02-14T21:29:13.569Z,16.90
2019-02-14T21:31:45.268Z,16.97
2019-02-14T21:34:17.201Z,18.10
2019-02-14T21:36:50.196Z,18.10
2019-02-14T21:39:23.383Z,17.03
2019-02-14T21:42:17.619Z,16.30
2019-02-14T21:44:30.147Z,18.03
2019-02-14T21:47:03.005Z,16.00
2019-02-14T21:49:36.077Z,18.33
2019-02-14T21:52:09.115Z,19.80
2019-02-14T21:54:41.725Z,17.97
2019-02-14T21:57:13.249Z,16.47
2019-02-14T21:59:48.307Z,16.83
2019-02-14T22:02:24.573Z,17.10
2019-02-14T22:04:59.048Z,16.27
2019-02-14T22:07:34.938Z,15.23
2019-02-14T22:10:05.722Z,15.70
2019-02-14T22:12:41.390Z,16.13
2019-02-14T22:15:17.236Z,15.87
2019-02-14T22:17:51.936Z,15.20
2019-02-14T22:20:25.262Z,15.60
2019-02-14T22:22:58.670Z,16.70
2019-02-14T22:25:33.952Z,17.20
2019-02-14T22:28:08.374Z,16.47
2019-02-14T22:30:44.641Z,18.73
2019-02-14T22:33:16.251Z,17.30
2019-02-14T22:35:50.421Z,16.33
2019-02-14T22:38:24.301Z,16.93
2019-02-14T22:41:00.854Z,17.60
2019-02-14T22:43:35.602Z,14.70
2019-02-14T22:46:10.044Z,20.20
2019-02-14T22:48:41.802Z,15.87
2019-02-14T22:51:13.309Z,15.70
2019-02-14T22:53:44.943Z,16.00
2019-02-14T22:56:16.515Z,17.70
2019-02-14T22:58:48.027Z,17.40
2019-02-14T23:01:19.705Z,16.53
2019-02-14T23:03:51.334Z,16.47
2019-02-14T23:06:22.940Z,16.43
2019-02-14T23:08:59.623Z,16.60
2019-02-14T23:11:36.074Z,18.20
2019-02-14T23:14:08.673Z,18.50
2019-02-14T23:17:10.660Z,16.43
2019-02-14T23:19:43.456Z,16.67
2019-02-14T23:22:16.733Z,16.27
2019-02-14T23:24:48.233Z,18.17
2019-02-14T23:27:19.653Z,17.30
2019-02-14T23:29:51.139Z,17.03
2019-02-14T23:32:23.129Z,17.10
2019-02-14T23:35:05.800Z,18.13
2019-02-14T23:37:39.037Z,16.20
2019-02-14T23:40:18.056Z,17.43
2019-02-14T23:42:49.649Z,17.83
2019-02-14T23:45:21.194Z,16.67
2019-02-14T23:47:52.723Z,17.40
2019-02-14T23:50:24.224Z,16.67
2019-02-14T23:52:55.774Z,16.47
2019-02-14T23:55:27.343Z,17.43
2019-02-14T23:57:59.037Z,17.20
